createdAt,value
2023-01-10T00:01:29.616Z,12.13
2023-01-10T00:03:56.942Z,11.18
2023-01-10T00:06:24.280Z,11.15
2023-01-10T00:08:51.532Z,11.15
2023-01-10T00:11:37.235Z,11.95
2023-01-10T00:14:04.863Z,11.52
2023-01-10T00:16:32.304Z,10.80
2023-01-10T00:18:59.897Z,11.07
2023-01-10T00:21:28.726Z,11.85
2023-01-10T00:23:58.086Z,10.77
2023-01-10T00:26:25.353Z,10.65
2023-01-10T00:28:52.626Z,11.23
2023-01-10T00:31:19.873Z,10.63
2023-01-10T00:33:47.202Z,10.98
2023-01-10T00:36:14.463Z,12.40
2023-01-10T00:38:41.711Z,13.35
2023-01-10T00:41:28.894Z,13.65
2023-01-10T00:43:59.566Z,13.30
2023-01-10T00:46:27.431Z,13.73
2023-01-10T00:48:54.933Z,11.65
2023-01-10T00:51:22.164Z,11.57
2023-01-10T00:53:49.361Z,11.38
2023-01-10T00:56:16.704Z,10.63
2023-01-10T00:58:44.811Z,10.05
2023-01-10T01:01:12.102Z,10.27
2023-01-10T01:03:39.398Z,10.48
2023-01-10T01:06:07.442Z,10.25
2023-01-10T01:08:34.731Z,10.50
2023-01-10T01:11:02.165Z,10.63
2023-01-10T01:13:29.494Z,10.75
2023-01-10T01:16:00.435Z,10.82
2023-01-10T01:18:28.516Z,10.57
2023-01-10T01:20:57.549Z,9.98
2023-01-10T01:23:25.168Z,9.60
2023-01-10T01:25:53.696Z,9.02
2023-01-10T01:28:21.951Z,10.02
2023-01-10T01:30:50.273Z,8.32
2023-01-10T01:33:18.572Z,8.57
2023-01-10T01:35:47.739Z,8.68
2023-01-10T01:38:16.463Z,8.90
2023-01-10T01:40:44.922Z,8.82
2023-01-10T01:43:28.497Z,8.75
2023-01-10T01:45:57.695Z,8.98
2023-01-10T01:48:24.935Z,8.75
2023-01-10T01:51:07.766Z,8.77
2023-01-10T01:53:46.284Z,8.50
2023-01-10T01:56:23.550Z,8.82
2023-01-10T01:58:56.831Z,8.02
2023-01-10T02:01:24.627Z,7.75
2023-01-10T02:03:57.085Z,8.05
2023-01-10T02:06:25.264Z,7.63
2023-01-10T02:09:04.986Z,7.40
2023-01-10T02:11:32.363Z,6.93
2023-01-10T02:14:00.160Z,6.68
2023-01-10T02:16:27.401Z,6.20
2023-01-10T02:18:54.668Z,5.95
2023-01-10T02:21:33.757Z,6.93
2023-01-10T02:24:29.144Z,6.18
2023-01-10T02:27:10.278Z,5.85
2023-01-10T02:29:43.722Z,5.78
2023-01-10T02:32:31.865Z,5.60
2023-01-10T02:35:23.257Z,5.38
2023-01-10T02:38:34.559Z,5.07
2023-01-10T02:41:16.790Z,4.78
2023-01-10T02:44:16.137Z,4.05
2023-01-10T02:46:46.362Z,4.28
2023-01-10T02:49:13.680Z,4.28
2023-01-10T02:51:41.019Z,4.18
2023-01-10T02:54:19.521Z,3.97
2023-01-10T02:56:58.451Z,4.80
2023-01-10T02:59:25.700Z,4.80
2023-01-10T03:02:21.822Z,4.13
2023-01-10T03:05:04.166Z,4.30
2023-01-10T03:07:37.181Z,4.50
2023-01-10T03:10:35.245Z,3.85
2023-01-10T03:13:08.350Z,4.55
2023-01-10T03:15:38.087Z,4.22
2023-01-10T03:18:14.136Z,4.75
2023-01-10T03:20:44.381Z,4.05
2023-01-10T03:23:13.359Z,4.70
2023-01-10T03:25:42.328Z,4.72
2023-01-10T03:28:21.626Z,4.82
2023-01-10T03:31:04.161Z,4.15
2023-01-10T03:33:33.381Z,4.28
2023-01-10T03:36:10.264Z,4.32
2023-01-10T03:38:57.023Z,4.05
2023-01-10T03:41:48.234Z,4.05
2023-01-10T03:44:44.121Z,3.65
2023-01-10T03:47:26.079Z,3.45
2023-01-10T03:50:11.471Z,3.45
2023-01-10T03:52:40.847Z,3.17
2023-01-10T03:55:11.759Z,3.40
2023-01-10T03:57:42.642Z,3.65
2023-01-10T04:00:10.603Z,3.72
2023-01-10T04:02:38.229Z,3.50
2023-01-10T04:05:06.456Z,3.40
2023-01-10T04:07:34.420Z,3.30
2023-01-10T04:10:01.674Z,3.13
2023-01-10T04:12:28.935Z,3.20
2023-01-10T04:14:56.438Z,2.78
2023-01-10T04:17:23.784Z,3.15
2023-01-10T04:19:51.078Z,3.22
2023-01-10T04:22:18.556Z,3.15
2023-01-10T04:24:47.315Z,2.75
2023-01-10T04:27:14.702Z,2.63
2023-01-10T04:29:42.123Z,2.70
2023-01-10T04:32:09.324Z,3.05
2023-01-10T04:34:36.565Z,2.97
2023-01-10T04:37:04.111Z,2.80
2023-01-10T04:39:31.339Z,2.78
2023-01-10T04:41:58.592Z,3.00
2023-01-10T04:44:25.792Z,2.42
2023-01-10T04:46:53.001Z,3.10
2023-01-10T04:49:20.256Z,2.78
2023-01-10T04:51:47.534Z,3.08
2023-01-10T04:54:14.749Z,2.63
2023-01-10T04:56:42.049Z,3.60
2023-01-10T04:59:10.373Z,3.10
2023-01-10T05:01:39.249Z,2.88
2023-01-10T05:04:06.928Z,3.13
2023-01-10T05:06:34.267Z,3.03
2023-01-10T05:09:01.755Z,3.20
2023-01-10T05:11:29.069Z,3.38
2023-01-10T05:13:56.314Z,2.90
2023-01-10T05:16:25.385Z,2.95
2023-01-10T05:18:52.736Z,3.47
2023-01-10T05:21:20.079Z,2.88
2023-01-10T05:23:47.304Z,2.80
2023-01-10T05:26:19.518Z,2.67
2023-01-10T05:28:47.084Z,2.60
2023-01-10T05:31:16.928Z,1.90
2023-01-10T05:33:48.980Z,2.50
2023-01-10T05:36:17.422Z,2.50
2023-01-10T05:38:45.131Z,2.30
2023-01-10T05:41:12.689Z,2.30
2023-01-10T05:43:40.101Z,2.30
2023-01-10T05:46:07.418Z,2.72
2023-01-10T05:48:34.961Z,2.45
2023-01-10T05:51:02.454Z,2.05
2023-01-10T05:53:29.732Z,2.00
2023-01-10T05:55:59.062Z,2.28
2023-01-10T05:58:26.828Z,2.38
2023-01-10T06:00:55.871Z,1.90
2023-01-10T06:03:23.525Z,1.80
2023-01-10T06:05:50.727Z,1.80
2023-01-10T06:08:18.253Z,1.90
2023-01-10T06:10:45.525Z,1.83
2023-01-10T06:13:12.901Z,1.55
2023-01-10T06:15:40.225Z,1.48
2023-01-10T06:18:11.834Z,1.52
2023-01-10T06:20:43.287Z,1.48
2023-01-10T06:23:11.103Z,1.52
2023-01-10T06:25:40.769Z,1.13
2023-01-10T06:28:10.390Z,1.50
2023-01-10T06:30:38.251Z,1.30
2023-01-10T06:33:07.017Z,1.55
2023-01-10T06:35:35.415Z,1.40
2023-01-10T06:38:02.968Z,1.73
2023-01-10T06:40:30.261Z,1.77
2023-01-10T06:42:57.653Z,1.50
2023-01-10T06:48:12.983Z,1.67
2023-01-10T06:50:41.061Z,1.92
2023-01-10T06:53:28.489Z,1.83
2023-01-10T06:55:57.396Z,1.58
2023-01-10T06:58:25.031Z,1.70
2023-01-10T07:00:52.502Z,1.67
2023-01-10T07:03:19.955Z,1.58
2023-01-10T07:07:14.982Z,1.40
2023-01-10T07:09:42.472Z,1.38
2023-01-10T07:12:09.937Z,1.50
2023-01-10T07:14:37.313Z,1.77
2023-01-10T07:17:04.852Z,1.48
2023-01-10T07:19:32.661Z,1.40
2023-01-10T07:21:59.931Z,1.42
2023-01-10T07:24:27.234Z,1.83
2023-01-10T07:29:41.322Z,1.50
2023-01-10T07:32:08.569Z,1.40
2023-01-10T07:34:36.640Z,1.90
2023-01-10T07:37:03.893Z,1.23
2023-01-10T07:39:31.262Z,1.60
2023-01-10T07:41:59.713Z,1.30
2023-01-10T07:44:27.000Z,1.63
2023-01-10T07:46:54.538Z,1.90
2023-01-10T07:49:21.781Z,1.80
2023-01-10T07:51:49.043Z,1.63
2023-01-10T07:54:16.308Z,1.85
2023-01-10T07:56:43.788Z,1.88
2023-01-10T07:59:11.026Z,1.88
2023-01-10T08:01:38.313Z,1.90
2023-01-10T08:04:05.774Z,1.75
2023-01-10T08:06:33.022Z,1.60
2023-01-10T08:09:00.246Z,1.83
2023-01-10T08:11:27.457Z,1.60
2023-01-10T08:13:54.705Z,2.03
2023-01-10T08:16:21.989Z,1.52
2023-01-10T08:18:49.345Z,1.50
2023-01-10T08:21:16.618Z,1.65
2023-01-10T08:23:43.909Z,1.35
2023-01-10T08:26:11.281Z,1.55
2023-01-10T08:28:38.550Z,1.77
2023-01-10T08:31:07.751Z,2.13
2023-01-10T08:33:37.189Z,1.80
2023-01-10T08:36:04.602Z,1.13
2023-01-10T08:38:32.907Z,1.42
2023-01-10T08:41:00.143Z,1.80
2023-01-10T08:43:27.475Z,1.60
2023-01-10T08:45:54.787Z,2.00
2023-01-10T08:48:22.363Z,1.80
2023-01-10T08:50:49.664Z,1.75
2023-01-10T08:53:17.068Z,1.77
2023-01-10T08:55:44.443Z,1.65
2023-01-10T08:58:11.963Z,1.75
2023-01-10T09:00:40.114Z,1.33
2023-01-10T09:03:08.582Z,1.67
2023-01-10T09:05:35.881Z,1.20
2023-01-10T09:08:03.971Z,1.20
2023-01-10T09:10:31.392Z,0.98
2023-01-10T09:13:01.439Z,1.63
2023-01-10T09:15:38.690Z,0.98
2023-01-10T09:18:07.653Z,1.10
2023-01-10T09:20:36.964Z,1.17
2023-01-10T09:23:10.078Z,2.15
2023-01-10T09:25:38.016Z,1.05
2023-01-10T09:28:06.368Z,0.55
2023-01-10T09:30:33.886Z,0.60
2023-01-10T09:33:01.960Z,0.65
2023-01-10T09:35:30.387Z,0.70
2023-01-10T09:38:00.977Z,0.85
2023-01-10T09:40:28.257Z,1.00
2023-01-10T09:43:03.310Z,1.05
2023-01-10T09:45:45.377Z,1.08
2023-01-10T09:48:27.019Z,1.10
2023-01-10T09:51:16.319Z,0.70
2023-01-10T09:53:45.400Z,0.32
2023-01-10T09:56:14.629Z,0.40
2023-01-10T09:58:43.671Z,0.55
2023-01-10T10:01:21.693Z,0.50
2023-01-10T10:03:56.315Z,0.50
2023-01-10T10:06:24.168Z,0.60
2023-01-10T10:09:04.938Z,0.50
2023-01-10T10:11:44.361Z,0.60
2023-01-10T10:14:29.661Z,0.40
2023-01-10T10:17:05.970Z,0.40
2023-01-10T10:19:36.301Z,0.65
2023-01-10T10:22:30.873Z,0.60
2023-01-10T10:25:13.634Z,0.88
2023-01-10T10:28:02.989Z,0.50
2023-01-10T10:31:01.635Z,0.55
2023-01-10T10:33:41.083Z,0.55
2023-01-10T10:36:20.665Z,0.80
2023-01-10T10:38:48.952Z,0.40
2023-01-10T10:41:38.594Z,0.80
2023-01-10T10:44:40.340Z,0.70
2023-01-10T10:47:36.140Z,0.80
2023-01-10T10:50:15.981Z,0.70
2023-01-10T10:52:45.569Z,0.75
2023-01-10T10:55:16.492Z,0.77
2023-01-10T10:57:55.603Z,0.90
2023-01-10T11:00:27.426Z,1.05
2023-01-10T11:03:11.594Z,0.73
2023-01-10T11:05:45.376Z,0.88
2023-01-10T11:08:16.281Z,1.00
2023-01-10T11:10:48.120Z,0.95
2023-01-10T11:13:27.179Z,1.17
2023-01-10T11:15:56.303Z,1.00
2023-01-10T11:18:26.413Z,0.77
2023-01-10T11:21:01.367Z,0.85
2023-01-10T11:23:40.360Z,0.77
2023-01-10T11:26:41.250Z,0.50
2023-01-10T11:29:21.438Z,1.05
2023-01-10T11:31:50.543Z,0.63
2023-01-10T11:34:30.315Z,1.10
2023-01-10T11:37:03.995Z,1.15
2023-01-10T11:39:32.445Z,0.88
2023-01-10T11:42:25.258Z,0.80
2023-01-10T11:44:52.573Z,0.70
2023-01-10T11:47:46.969Z,0.40
2023-01-10T11:50:25.105Z,0.65
2023-01-10T11:52:53.602Z,0.68
2023-01-10T11:55:24.069Z,0.70
2023-01-10T11:57:55.859Z,0.47
2023-01-10T12:00:30.269Z,0.70
2023-01-10T12:02:57.933Z,0.50
2023-01-10T12:05:25.265Z,0.68
2023-01-10T12:08:06.553Z,0.40
2023-01-10T12:10:35.412Z,0.55
2023-01-10T12:13:20.859Z,0.50
2023-01-10T12:15:49.348Z,0.93
2023-01-10T12:18:19.877Z,0.50
2023-01-10T12:20:51.161Z,0.80
2023-01-10T12:23:22.053Z,0.70
2023-01-10T12:25:53.247Z,0.70
2023-01-10T12:28:28.947Z,0.60
2023-01-10T12:31:06.020Z,0.75
2023-01-10T12:34:27.740Z,0.60
2023-01-10T12:37:22.261Z,0.70
2023-01-10T12:39:56.361Z,0.57
2023-01-10T12:43:05.904Z,0.40
2023-01-10T12:45:46.926Z,0.70
2023-01-10T12:48:14.313Z,0.80
2023-01-10T12:50:48.617Z,0.50
2023-01-10T12:53:31.411Z,0.57
2023-01-10T12:56:04.274Z,0.60
2023-01-10T12:58:43.174Z,0.50
2023-01-10T13:01:40.323Z,0.55
2023-01-10T13:04:13.673Z,0.50
2023-01-10T13:07:09.568Z,0.68
2023-01-10T13:09:37.639Z,0.50
2023-01-10T13:12:34.326Z,0.45
2023-01-10T13:15:07.511Z,1.45
2023-01-10T13:17:48.047Z,0.40
2023-01-10T13:20:26.825Z,0.50
2023-01-10T13:22:59.557Z,0.50
2023-01-10T13:25:29.014Z,0.93
2023-01-10T13:28:32.131Z,0.85
2023-01-10T13:31:15.103Z,0.30
2023-01-10T13:34:09.016Z,0.80
2023-01-10T13:36:48.073Z,0.60
2023-01-10T13:39:38.386Z,0.70
2023-01-10T13:42:24.025Z,0.70
2023-01-10T13:45:03.562Z,1.30
2023-01-10T13:47:40.121Z,1.30
2023-01-10T13:50:28.508Z,1.00
2023-01-10T13:53:18.873Z,1.10
2023-01-10T13:55:49.809Z,1.13
2023-01-10T13:58:17.028Z,1.33
2023-01-10T14:01:16.479Z,1.13
2023-01-10T14:03:53.848Z,0.70
2023-01-10T14:06:30.147Z,1.00
2023-01-10T14:09:19.758Z,0.75
2023-01-10T14:11:54.446Z,0.90
2023-01-10T14:14:24.459Z,1.15
2023-01-10T14:17:17.314Z,1.08
2023-01-10T14:19:47.892Z,0.88
2023-01-10T14:22:26.323Z,0.90
2023-01-10T14:24:54.406Z,1.00
2023-01-10T14:27:22.941Z,0.93
2023-01-10T14:29:58.272Z,0.80
2023-01-10T14:32:38.359Z,0.60
2023-01-10T14:35:08.462Z,0.77
2023-01-10T14:37:46.279Z,0.55
2023-01-10T14:40:41.021Z,0.70
2023-01-10T14:43:17.860Z,0.90
2023-01-10T14:46:11.535Z,0.98
2023-01-10T14:48:49.730Z,9.82
2023-01-10T14:51:24.172Z,2.10
2023-01-10T14:53:57.707Z,0.80
2023-01-10T14:56:36.099Z,0.82
2023-01-10T14:59:23.470Z,0.70
2023-01-10T15:02:20.344Z,0.85
2023-01-10T15:05:07.728Z,1.00
2023-01-10T15:07:36.108Z,0.93
2023-01-10T15:10:16.963Z,0.75
2023-01-10T15:12:45.054Z,1.10
2023-01-10T15:15:18.909Z,0.52
2023-01-10T15:17:47.223Z,0.98
2023-01-10T15:20:16.749Z,0.68
2023-01-10T15:22:48.803Z,1.00
2023-01-10T15:25:18.978Z,0.85
2023-01-10T15:27:50.065Z,0.65
2023-01-10T15:30:35.517Z,0.90
2023-01-10T15:33:06.504Z,0.80
2023-01-10T15:35:37.460Z,0.70
2023-01-10T15:38:12.123Z,0.95
2023-01-10T15:40:40.932Z,0.90
2023-01-10T15:43:24.154Z,0.70
2023-01-10T15:45:53.197Z,1.13
2023-01-10T15:48:36.911Z,1.15
2023-01-10T15:51:21.296Z,1.75
2023-01-10T15:53:55.480Z,1.08
2023-01-10T15:56:29.932Z,1.38
2023-01-10T15:58:58.771Z,1.33
2023-01-10T16:01:28.675Z,2.00
2023-01-10T16:04:01.868Z,2.17
2023-01-10T16:06:30.165Z,2.20
2023-01-10T16:09:00.559Z,2.00
2023-01-10T16:12:08.872Z,2.60
2023-01-10T16:14:37.795Z,2.33
2023-01-10T16:17:05.550Z,2.03
2023-01-10T16:19:32.833Z,2.03
2023-01-10T16:22:00.525Z,2.00
2023-01-10T16:24:32.482Z,2.10
2023-01-10T16:27:03.254Z,2.22
2023-01-10T16:29:30.523Z,1.65
2023-01-10T16:31:58.536Z,1.65
2023-01-10T16:34:26.043Z,2.00
2023-01-10T16:36:57.564Z,1.40
2023-01-10T16:39:26.146Z,1.20
2023-01-10T16:45:40.587Z,1.00
2023-01-10T16:48:08.175Z,1.00
2023-01-10T16:50:35.960Z,0.93
2023-01-10T16:53:06.105Z,1.13
2023-01-10T16:59:16.245Z,2.50
2023-01-10T17:01:51.155Z,2.05
2023-01-10T17:04:24.978Z,2.88
2023-01-10T17:06:52.437Z,2.75
2023-01-10T17:09:28.507Z,2.28
2023-01-10T17:12:07.135Z,2.50
2023-01-10T17:14:36.339Z,2.95
2023-01-10T17:17:04.414Z,3.53
2023-01-10T17:19:31.978Z,3.65
2023-01-10T17:22:00.172Z,3.53
2023-01-10T17:24:29.693Z,3.35
2023-01-10T17:26:57.141Z,4.05
2023-01-10T17:29:24.428Z,3.53
2023-01-10T17:31:51.730Z,3.22
2023-01-10T17:34:19.095Z,3.10
2023-01-10T17:36:55.648Z,2.50
2023-01-10T17:39:39.957Z,2.10
2023-01-10T17:42:07.435Z,2.67
2023-01-10T17:44:34.715Z,2.78
2023-01-10T17:47:03.004Z,2.08
2023-01-10T17:49:30.290Z,1.55
2023-01-10T17:51:58.801Z,1.60
2023-01-10T17:54:26.756Z,1.67
2023-01-10T17:56:54.133Z,2.00
2023-01-10T17:59:22.322Z,2.15
2023-01-10T18:01:49.823Z,1.90
2023-01-10T18:04:17.103Z,2.00
2023-01-10T18:06:44.611Z,1.80
2023-01-10T18:09:12.053Z,1.60
2023-01-10T18:14:36.677Z,2.38
2023-01-10T18:17:12.332Z,2.70
2023-01-10T18:19:39.762Z,1.90
2023-01-10T18:22:27.150Z,2.42
2023-01-10T18:24:55.062Z,2.53
2023-01-10T18:27:24.222Z,2.53
2023-01-10T18:29:52.504Z,2.88
2023-01-10T18:32:21.592Z,3.40
2023-01-10T18:34:49.091Z,2.83
2023-01-10T18:37:18.134Z,2.92
2023-01-10T18:39:47.091Z,2.75
2023-01-10T18:42:14.368Z,2.85
2023-01-10T18:44:41.626Z,2.53
2023-01-10T18:47:09.307Z,2.80
2023-01-10T18:49:36.621Z,2.50
2023-01-10T18:52:04.214Z,2.80
2023-01-10T18:54:31.783Z,2.20
2023-01-10T18:56:59.207Z,2.35
2023-01-10T18:59:26.578Z,2.15
2023-01-10T19:01:53.920Z,3.78
2023-01-10T19:04:21.307Z,3.45
2023-01-10T19:06:48.537Z,3.00
2023-01-10T19:09:15.940Z,3.33
2023-01-10T19:11:43.183Z,2.75
2023-01-10T19:14:10.509Z,3.97
2023-01-10T19:16:37.853Z,3.60
2023-01-10T19:19:09.289Z,3.63
2023-01-10T19:21:38.918Z,3.65
2023-01-10T19:24:15.305Z,3.95
2023-01-10T19:26:42.542Z,3.60
2023-01-10T19:29:09.776Z,3.35
2023-01-10T19:31:37.091Z,3.60
2023-01-10T19:34:04.376Z,3.92
2023-01-10T19:36:35.044Z,4.57
2023-01-10T19:39:03.085Z,4.57
2023-01-10T19:41:31.099Z,4.60
2023-01-10T19:44:00.190Z,5.43
2023-01-10T19:46:28.321Z,4.88
2023-01-10T19:48:56.343Z,4.78
2023-01-10T19:51:56.160Z,5.22
2023-01-10T19:54:26.822Z,4.20
2023-01-10T19:56:54.168Z,4.05
2023-01-10T19:59:21.600Z,5.18
2023-01-10T20:01:49.040Z,5.15
2023-01-10T20:04:17.193Z,4.15
2023-01-10T20:06:45.207Z,4.03
2023-01-10T20:09:13.619Z,4.07
2023-01-10T20:11:42.869Z,4.30
2023-01-10T20:14:16.694Z,3.88
2023-01-10T20:16:44.536Z,4.82
2023-01-10T20:19:12.313Z,4.38
2023-01-10T20:21:41.560Z,3.50
2023-01-10T20:24:17.765Z,2.90
2023-01-10T20:26:47.800Z,2.92
2023-01-10T20:29:16.125Z,4.22
2023-01-10T20:31:46.476Z,3.28
2023-01-10T20:34:13.745Z,2.42
2023-01-10T20:36:40.997Z,2.70
2023-01-10T20:39:08.408Z,2.72
2023-01-10T20:41:37.182Z,2.95
2023-01-10T20:44:04.520Z,3.97
2023-01-10T20:46:32.825Z,3.33
2023-01-10T20:49:02.619Z,2.30
2023-01-10T20:51:37.714Z,2.10
2023-01-10T20:54:08.152Z,3.53
2023-01-10T20:56:35.734Z,2.10
2023-01-10T20:59:03.713Z,2.55
2023-01-10T21:01:34.905Z,2.00
2023-01-10T21:04:05.654Z,3.13
2023-01-10T21:06:34.524Z,3.92
2023-01-10T21:09:07.878Z,3.25
2023-01-10T21:11:47.717Z,6.03
2023-01-10T21:14:49.440Z,7.50
2023-01-10T21:17:16.865Z,4.28
2023-01-10T21:20:15.378Z,3.92
2023-01-10T21:22:43.055Z,3.67
2023-01-10T21:25:10.486Z,4.13
2023-01-10T21:27:37.763Z,4.82
2023-01-10T21:30:06.322Z,7.82
2023-01-10T21:32:34.058Z,6.15
2023-01-10T21:35:01.505Z,7.38
2023-01-10T21:37:28.790Z,5.25
2023-01-10T21:39:56.206Z,6.60
2023-01-10T21:42:38.285Z,4.22
2023-01-10T21:45:07.268Z,4.28
2023-01-10T21:47:36.265Z,4.80
2023-01-10T21:50:04.730Z,6.22
2023-01-10T21:52:32.027Z,5.22
2023-01-10T21:54:59.291Z,5.63
2023-01-10T21:57:28.020Z,4.68
2023-01-10T21:59:55.268Z,4.63
2023-01-10T22:02:24.283Z,4.60
2023-01-10T22:04:53.207Z,5.15
2023-01-10T22:07:22.385Z,6.80
2023-01-10T22:09:52.914Z,6.97
2023-01-10T22:12:22.844Z,6.40
2023-01-10T22:14:50.390Z,6.22
2023-01-10T22:17:18.095Z,5.10
2023-01-10T22:19:45.486Z,6.05
2023-01-10T22:22:13.808Z,5.53
2023-01-10T22:24:44.729Z,5.28
2023-01-10T22:27:12.151Z,5.30
2023-01-10T22:29:40.103Z,5.65
2023-01-10T22:32:07.770Z,5.55
2023-01-10T22:34:35.072Z,5.57
2023-01-10T22:37:02.421Z,5.88
2023-01-10T22:39:29.808Z,6.75
2023-01-10T22:41:57.068Z,6.60
2023-01-10T22:44:26.571Z,7.18
2023-01-10T22:46:55.535Z,7.47
2023-01-10T22:49:23.037Z,7.47
2023-01-10T22:51:50.748Z,8.38
2023-01-10T22:54:18.118Z,7.70
2023-01-10T22:56:46.505Z,6.45
2023-01-10T22:59:14.005Z,5.60
2023-01-10T23:01:41.958Z,5.80
2023-01-10T23:04:09.349Z,4.38
2023-01-10T23:06:36.611Z,3.95
2023-01-10T23:09:04.356Z,3.60
2023-01-10T23:11:31.612Z,4.45
2023-01-10T23:13:58.959Z,5.40
2023-01-10T23:16:29.702Z,5.20
2023-01-10T23:18:58.402Z,5.18
2023-01-10T23:21:26.688Z,5.30
2023-01-10T23:23:54.899Z,5.45
2023-01-10T23:26:23.070Z,5.97
2023-01-10T23:28:51.521Z,6.68
2023-01-10T23:31:22.333Z,6.20
2023-01-10T23:33:50.832Z,6.18
2023-01-10T23:36:18.631Z,5.50
2023-01-10T23:38:46.071Z,5.70
2023-01-10T23:41:13.519Z,5.13
2023-01-10T23:43:40.835Z,5.18
2023-01-10T23:46:10.074Z,5.95
2023-01-10T23:48:37.447Z,5.47
2023-01-10T23:51:07.700Z,5.40
2023-01-10T23:53:34.983Z,4.97
2023-01-10T23:56:10.189Z,4.90
2023-01-10T23:58:44.653Z,5.25
